createdAt,value
2023-02-07T00:00:34.129Z,67.47
2023-02-07T00:03:21.470Z,63.37
2023-02-07T00:05:48.946Z,55.83
2023-02-07T00:08:16.254Z,67.23
2023-02-07T00:10:43.752Z,64.67
2023-02-07T00:13:10.869Z,54.10
2023-02-07T00:15:38.629Z,63.73
2023-02-07T00:18:05.936Z,68.50
2023-02-07T00:20:33.309Z,67.60
2023-02-07T00:23:00.382Z,63.67
2023-02-07T00:25:27.813Z,56.47
2023-02-07T00:27:55.051Z,63.63
2023-02-07T00:30:22.476Z,58.73
2023-02-07T00:32:49.543Z,57.73
2023-02-07T00:35:18.964Z,58.43
2023-02-07T00:37:46.045Z,53.30
2023-02-07T00:40:13.448Z,56.00
2023-02-07T00:42:40.503Z,47.23
2023-02-07T00:45:08.243Z,55.47
2023-02-07T00:47:35.300Z,55.13
2023-02-07T00:50:02.662Z,48.87
2023-02-07T00:52:29.662Z,54.17
2023-02-07T00:54:56.964Z,61.37
2023-02-07T00:57:24.051Z,47.50
2023-02-07T00:59:51.341Z,48.07
2023-02-07T01:02:18.351Z,50.60
2023-02-07T01:04:45.906Z,49.40
2023-02-07T01:07:12.931Z,58.03
2023-02-07T01:09:40.540Z,45.03
2023-02-07T01:12:07.705Z,45.97
2023-02-07T01:14:34.925Z,48.27
2023-02-07T01:17:01.897Z,45.47
2023-02-07T01:19:29.165Z,50.27
2023-02-07T01:25:40.888Z,47.57
2023-02-07T01:29:23.574Z,50.67
2023-02-07T01:33:05.376Z,50.33
2023-02-07T01:35:50.905Z,41.40
2023-02-07T01:38:18.314Z,59.63
2023-02-07T01:40:45.288Z,50.80
2023-02-07T01:43:25.359Z,46.33
2023-02-07T01:45:52.402Z,47.67
2023-02-07T01:48:28.660Z,46.33
2023-02-07T01:50:57.562Z,47.73
2023-02-07T01:53:27.463Z,51.83
2023-02-07T01:55:57.397Z,47.03
2023-02-07T01:58:25.755Z,52.87
2023-02-07T02:00:52.983Z,44.37
2023-02-07T02:03:20.260Z,46.70
2023-02-07T02:05:49.582Z,41.73
2023-02-07T02:08:16.852Z,50.10
2023-02-07T02:11:17.824Z,53.97
2023-02-07T02:14:22.770Z,43.43
2023-02-07T02:17:18.483Z,51.73
2023-02-07T02:20:11.385Z,40.53
2023-02-07T02:23:06.101Z,52.97
2023-02-07T02:26:00.641Z,55.63
2023-02-07T02:28:49.194Z,57.27
2023-02-07T02:31:36.862Z,48.13
2023-02-07T02:34:26.964Z,50.80
2023-02-07T02:37:06.282Z,47.17
2023-02-07T02:39:58.325Z,57.90
2023-02-07T02:42:27.367Z,52.13
2023-02-07T02:45:10.836Z,51.97
2023-02-07T02:47:40.439Z,57.90
2023-02-07T02:50:21.395Z,57.23
2023-02-07T02:52:50.857Z,55.10
2023-02-07T02:55:22.521Z,53.03
2023-02-07T02:58:10.414Z,51.30
2023-02-07T03:00:56.752Z,58.87
2023-02-07T03:03:55.562Z,56.80
2023-02-07T03:06:25.666Z,61.13
2023-02-07T03:09:39.529Z,46.20
2023-02-07T03:12:18.293Z,52.30
2023-02-07T03:15:07.428Z,52.57
2023-02-07T03:17:37.970Z,49.47
2023-02-07T03:20:23.006Z,55.83
2023-02-07T03:22:53.460Z,55.30
2023-02-07T03:25:22.942Z,50.43
2023-02-07T03:27:50.864Z,47.93
2023-02-07T03:30:21.840Z,52.67
2023-02-07T03:32:56.573Z,50.07
2023-02-07T03:35:33.145Z,45.60
2023-02-07T03:38:02.074Z,48.93
2023-02-07T03:40:35.958Z,54.30
2023-02-07T03:43:16.224Z,44.10
2023-02-07T03:45:43.696Z,43.40
2023-02-07T03:48:10.657Z,42.83
2023-02-07T03:50:38.227Z,42.50
2023-02-07T03:53:05.622Z,40.57
2023-02-07T03:55:33.631Z,48.07
2023-02-07T03:58:01.044Z,38.23
2023-02-07T04:00:28.396Z,44.10
2023-02-07T04:02:55.446Z,44.00
2023-02-07T04:05:22.708Z,49.30
2023-02-07T04:07:49.697Z,38.73
2023-02-07T04:10:17.070Z,37.00
2023-02-07T04:12:44.041Z,46.23
2023-02-07T04:15:11.701Z,48.00
2023-02-07T04:17:39.069Z,39.07
2023-02-07T04:20:07.155Z,40.70
2023-02-07T04:22:34.291Z,43.97
2023-02-07T04:25:01.546Z,35.67
2023-02-07T04:27:28.741Z,36.57
2023-02-07T04:29:56.433Z,40.67
2023-02-07T04:32:23.429Z,32.77
2023-02-07T04:34:50.713Z,45.23
2023-02-07T04:37:17.695Z,37.23
2023-02-07T04:39:44.932Z,45.97
2023-02-07T04:42:12.095Z,44.93
2023-02-07T04:44:39.361Z,36.53
2023-02-07T04:47:06.407Z,31.07
2023-02-07T04:49:34.597Z,36.37
2023-02-07T04:52:02.137Z,32.50
2023-02-07T04:54:29.359Z,34.93
2023-02-07T04:56:56.356Z,34.33
2023-02-07T04:59:23.637Z,33.93
2023-02-07T05:01:50.605Z,39.37
2023-02-07T05:04:17.983Z,41.53
2023-02-07T05:06:45.149Z,33.17
2023-02-07T05:09:12.511Z,39.27
2023-02-07T05:11:39.556Z,31.13
2023-02-07T05:14:06.820Z,36.17
2023-02-07T05:16:33.946Z,32.10
2023-02-07T05:19:01.243Z,36.30
2023-02-07T05:21:28.244Z,37.20
2023-02-07T05:23:55.460Z,34.63
2023-02-07T05:26:22.383Z,30.33
2023-02-07T05:28:49.624Z,27.30
2023-02-07T05:31:16.846Z,23.10
2023-02-07T05:33:44.099Z,28.37
2023-02-07T05:36:11.212Z,26.43
2023-02-07T05:38:39.198Z,30.63
2023-02-07T05:41:06.137Z,29.17
2023-02-07T05:43:33.446Z,26.70
2023-02-07T05:46:00.474Z,27.43
2023-02-07T05:48:27.797Z,27.67
2023-02-07T05:50:54.796Z,27.30
2023-02-07T05:53:22.022Z,24.03
2023-02-07T05:55:52.645Z,28.27
2023-02-07T05:58:19.909Z,24.43
2023-02-07T06:00:48.939Z,27.63
2023-02-07T06:03:16.256Z,25.10
2023-02-07T06:05:43.305Z,29.97
2023-02-07T06:08:10.952Z,24.83
2023-02-07T06:10:38.006Z,23.00
2023-02-07T06:13:05.240Z,20.07
2023-02-07T06:15:32.391Z,25.20
2023-02-07T06:18:02.046Z,19.23
2023-02-07T06:20:29.036Z,21.03
2023-02-07T06:22:56.260Z,25.67
2023-02-07T06:25:23.324Z,19.30
2023-02-07T06:27:50.668Z,25.87
2023-02-07T06:30:17.825Z,22.07
2023-02-07T06:32:45.063Z,22.43
2023-02-07T06:35:12.084Z,21.53
2023-02-07T06:37:39.373Z,20.00
2023-02-07T06:40:07.324Z,18.73
2023-02-07T06:42:34.718Z,19.43
2023-02-07T06:45:02.008Z,19.50
2023-02-07T06:47:29.299Z,23.40
2023-02-07T06:49:56.374Z,23.50
2023-02-07T06:52:23.683Z,20.77
2023-02-07T06:54:50.628Z,25.20
2023-02-07T06:57:17.896Z,24.00
2023-02-07T06:59:44.875Z,22.97
2023-02-07T07:02:12.853Z,20.60
2023-02-07T07:04:40.370Z,20.03
2023-02-07T07:07:07.622Z,21.57
2023-02-07T07:09:34.922Z,25.17
2023-02-07T07:12:02.168Z,20.27
2023-02-07T07:14:29.126Z,19.53
2023-02-07T07:16:56.931Z,20.17
2023-02-07T07:19:24.034Z,24.73
2023-02-07T07:21:51.514Z,20.97
2023-02-07T07:24:18.499Z,19.80
2023-02-07T07:26:49.754Z,24.30
2023-02-07T07:29:18.525Z,22.73
2023-02-07T07:31:47.153Z,21.43
2023-02-07T07:34:14.682Z,24.00
2023-02-07T07:36:42.469Z,18.67
2023-02-07T07:39:09.544Z,20.43
2023-02-07T07:41:36.891Z,22.33
2023-02-07T07:44:04.015Z,23.53
2023-02-07T07:46:31.317Z,20.87
2023-02-07T07:48:58.507Z,22.03
2023-02-07T07:51:25.762Z,21.33
2023-02-07T07:53:52.724Z,22.97
2023-02-07T07:56:20.069Z,20.23
2023-02-07T07:58:48.539Z,19.37
2023-02-07T08:01:16.287Z,19.70
2023-02-07T08:03:43.342Z,23.13
2023-02-07T08:06:10.850Z,22.77
2023-02-07T08:08:38.255Z,21.17
2023-02-07T08:11:08.193Z,19.57
2023-02-07T08:13:35.745Z,21.77
2023-02-07T08:16:04.707Z,21.23
2023-02-07T08:18:31.820Z,30.63
2023-02-07T08:20:59.087Z,24.97
2023-02-07T08:23:26.126Z,20.63
2023-02-07T08:25:53.368Z,22.10
2023-02-07T08:28:20.890Z,20.10
2023-02-07T08:30:48.617Z,29.07
2023-02-07T08:33:16.966Z,20.23
2023-02-07T08:35:44.873Z,23.07
2023-02-07T08:38:12.187Z,22.73
2023-02-07T08:40:39.957Z,22.70
2023-02-07T08:43:13.245Z,20.10
2023-02-07T08:45:41.992Z,21.80
2023-02-07T08:48:09.436Z,20.70
2023-02-07T08:50:36.702Z,20.63
2023-02-07T08:53:04.023Z,25.30
2023-02-07T08:55:31.326Z,24.53
2023-02-07T08:57:58.357Z,21.10
2023-02-07T09:00:25.623Z,29.87
2023-02-07T09:02:52.653Z,21.43
2023-02-07T09:05:20.147Z,20.13
2023-02-07T09:07:47.184Z,20.57
2023-02-07T09:10:15.553Z,60.50
2023-02-07T09:12:42.743Z,22.73
2023-02-07T09:15:10.246Z,25.37
2023-02-07T09:17:37.596Z,19.40
2023-02-07T09:20:05.346Z,26.33
2023-02-07T09:22:52.722Z,26.57
2023-02-07T09:25:20.069Z,22.13
2023-02-07T09:27:47.077Z,21.93
2023-02-07T09:30:14.496Z,23.17
2023-02-07T09:32:41.495Z,18.33
2023-02-07T09:35:09.284Z,26.37
2023-02-07T09:37:48.955Z,19.87
2023-02-07T09:40:19.595Z,21.00
2023-02-07T09:43:00.008Z,21.90
2023-02-07T09:45:32.035Z,21.53
2023-02-07T09:48:23.302Z,24.33
2023-02-07T09:50:54.692Z,23.13
2023-02-07T09:53:35.972Z,22.67
2023-02-07T09:56:04.815Z,22.07
2023-02-07T09:58:43.073Z,22.87
2023-02-07T10:01:44.483Z,18.30
2023-02-07T10:04:54.237Z,18.03
2023-02-07T10:07:36.519Z,21.27
2023-02-07T10:10:26.243Z,21.10
2023-02-07T10:13:17.118Z,20.90
2023-02-07T10:16:20.073Z,44.03
2023-02-07T10:19:01.198Z,22.57
2023-02-07T10:22:06.808Z,17.20
2023-02-07T10:24:57.320Z,22.23
2023-02-07T10:27:55.003Z,20.40
2023-02-07T10:30:33.693Z,20.63
2023-02-07T10:33:12.419Z,18.53
2023-02-07T10:35:40.066Z,21.63
2023-02-07T10:38:21.389Z,20.63
2023-02-07T10:41:33.384Z,22.67
2023-02-07T10:44:00.630Z,21.30
2023-02-07T10:46:47.737Z,20.70
2023-02-07T10:49:36.020Z,16.73
2023-02-07T10:52:28.763Z,21.87
2023-02-07T10:55:41.740Z,17.93
2023-02-07T10:58:25.694Z,19.27
2023-02-07T11:00:54.790Z,18.27
2023-02-07T11:03:25.812Z,19.90
2023-02-07T11:06:02.635Z,16.80
2023-02-07T11:08:32.782Z,19.90
2023-02-07T11:11:17.604Z,18.60
2023-02-07T11:13:53.052Z,73.70
2023-02-07T11:16:43.897Z,20.67
2023-02-07T11:19:51.246Z,15.17
2023-02-07T11:22:24.743Z,22.17
2023-02-07T11:25:40.444Z,17.67
2023-02-07T11:28:30.647Z,16.00
2023-02-07T11:31:28.458Z,19.60
2023-02-07T11:34:26.507Z,17.83
2023-02-07T11:36:53.573Z,76.50
2023-02-07T11:39:23.050Z,17.70
2023-02-07T11:42:03.221Z,20.97
2023-02-07T11:44:31.350Z,18.40
2023-02-07T11:47:04.400Z,19.77
2023-02-07T11:49:58.112Z,19.87
2023-02-07T11:52:26.172Z,18.20
2023-02-07T11:54:57.905Z,19.83
2023-02-07T11:57:28.561Z,17.30
2023-02-07T12:00:19.935Z,18.53
2023-02-07T12:02:58.563Z,20.57
2023-02-07T12:05:31.720Z,19.73
2023-02-07T12:08:22.790Z,21.13
2023-02-07T12:10:55.710Z,21.53
2023-02-07T12:13:47.014Z,16.37
2023-02-07T12:16:23.930Z,19.30
2023-02-07T12:19:15.571Z,22.67
2023-02-07T12:22:20.068Z,17.10
2023-02-07T12:25:42.323Z,18.70
2023-02-07T12:28:45.134Z,17.70
2023-02-07T12:31:49.574Z,23.77
2023-02-07T12:34:41.225Z,15.67
2023-02-07T12:37:46.422Z,23.77
2023-02-07T12:41:12.739Z,23.40
2023-02-07T12:44:18.882Z,20.27
2023-02-07T12:47:06.709Z,31.70
2023-02-07T12:49:48.547Z,15.00
2023-02-07T12:52:41.901Z,18.53
2023-02-07T12:55:14.897Z,16.13
2023-02-07T12:58:24.305Z,25.43
2023-02-07T13:01:03.378Z,20.33
2023-02-07T13:03:31.858Z,16.90
2023-02-07T13:06:30.555Z,18.70
2023-02-07T13:09:06.480Z,19.97
2023-02-07T13:12:02.517Z,21.27
2023-02-07T13:15:10.468Z,14.37
2023-02-07T13:17:40.400Z,23.90
2023-02-07T13:20:53.116Z,17.07
2023-02-07T13:23:57.777Z,18.67
2023-02-07T13:26:28.568Z,25.93
2023-02-07T13:29:36.223Z,16.97
2023-02-07T13:32:37.968Z,21.00
2023-02-07T13:35:27.793Z,23.50
2023-02-07T13:38:23.970Z,29.40
2023-02-07T13:41:43.871Z,21.23
2023-02-07T13:44:50.973Z,17.83
2023-02-07T13:47:40.796Z,20.77
2023-02-07T13:50:07.901Z,16.73
2023-02-07T13:52:55.880Z,22.90
2023-02-07T13:55:43.916Z,19.13
2023-02-07T13:58:54.269Z,21.40
2023-02-07T14:01:52.378Z,17.83
2023-02-07T14:05:12.630Z,22.23
2023-02-07T14:08:06.366Z,17.60
2023-02-07T14:11:19.892Z,20.83
2023-02-07T14:14:15.684Z,21.27
2023-02-07T14:16:47.905Z,15.90
2023-02-07T14:19:17.897Z,19.23
2023-02-07T14:22:18.455Z,22.73
2023-02-07T14:25:03.085Z,18.97
2023-02-07T14:27:50.819Z,21.50
2023-02-07T14:30:57.106Z,16.10
2023-02-07T14:33:38.076Z,18.37
2023-02-07T14:36:14.309Z,23.50
2023-02-07T14:38:47.213Z,21.23
2023-02-07T14:41:16.694Z,21.90
2023-02-07T14:44:08.031Z,24.37
2023-02-07T14:46:48.920Z,20.03
2023-02-07T14:49:22.382Z,22.40
2023-02-07T14:52:22.605Z,21.37
2023-02-07T14:54:52.628Z,22.43
2023-02-07T14:57:37.901Z,26.93
2023-02-07T15:00:18.529Z,21.53
2023-02-07T15:03:09.465Z,19.47
2023-02-07T15:05:39.248Z,21.27
2023-02-07T15:08:15.021Z,21.03
2023-02-07T15:11:13.102Z,21.80
2023-02-07T15:13:46.134Z,23.67
2023-02-07T15:16:17.896Z,20.73
2023-02-07T15:18:46.643Z,19.87
2023-02-07T15:21:21.043Z,21.90
2023-02-07T15:24:14.208Z,20.87
2023-02-07T15:26:41.672Z,20.80
2023-02-07T15:29:21.216Z,21.83
2023-02-07T15:32:08.589Z,19.03
2023-02-07T15:34:35.639Z,24.03
2023-02-07T15:37:14.974Z,22.87
2023-02-07T15:39:42.161Z,22.10
2023-02-07T15:42:16.678Z,22.23
2023-02-07T15:44:55.021Z,19.43
2023-02-07T15:47:28.368Z,21.40
2023-02-07T15:50:02.426Z,20.10
2023-02-07T15:52:35.077Z,20.17
2023-02-07T15:55:18.452Z,20.43
2023-02-07T15:57:45.791Z,22.13
2023-02-07T16:00:22.090Z,21.60
2023-02-07T16:03:05.976Z,20.27
2023-02-07T16:05:39.056Z,23.23
2023-02-07T16:08:27.441Z,22.00
2023-02-07T16:10:54.509Z,23.67
2023-02-07T16:13:23.047Z,22.87
2023-02-07T16:15:52.977Z,22.40
2023-02-07T16:18:46.429Z,19.90
2023-02-07T16:21:22.270Z,21.73
2023-02-07T16:23:52.837Z,23.23
2023-02-07T16:26:24.696Z,26.97
2023-02-07T16:28:52.046Z,25.27
2023-02-07T16:31:19.279Z,20.40
2023-02-07T16:33:46.480Z,24.00
2023-02-07T16:36:16.100Z,21.50
2023-02-07T16:38:44.673Z,22.93
2023-02-07T16:41:32.253Z,21.53
2023-02-07T16:44:01.225Z,22.93
2023-02-07T16:46:28.385Z,24.50
2023-02-07T16:48:55.609Z,23.93
2023-02-07T16:51:22.645Z,21.40
2023-02-07T16:53:50.682Z,22.17
2023-02-07T16:56:27.314Z,24.20
2023-02-07T16:58:54.573Z,23.03
2023-02-07T17:01:22.636Z,25.23
2023-02-07T17:03:50.172Z,28.57
2023-02-07T17:06:19.890Z,24.67
2023-02-07T17:08:48.075Z,23.43
2023-02-07T17:11:20.701Z,26.43
2023-02-07T17:13:47.950Z,27.17
2023-02-07T17:16:15.072Z,23.23
2023-02-07T17:18:42.520Z,23.70
2023-02-07T17:21:11.650Z,21.23
2023-02-07T17:23:38.917Z,26.23
2023-02-07T17:36:29.095Z,27.47
2023-02-07T17:38:58.998Z,22.90
2023-02-07T17:41:26.558Z,23.90
2023-02-07T17:43:54.472Z,23.30
2023-02-07T17:46:24.958Z,22.17
2023-02-07T17:48:53.075Z,22.07
2023-02-07T17:51:22.555Z,19.30
2023-02-07T17:53:50.999Z,23.33
2023-02-07T17:56:23.220Z,28.07
2023-02-07T17:58:51.787Z,23.87
2023-02-07T18:01:19.533Z,19.93
2023-02-07T18:03:53.106Z,27.50
2023-02-07T18:06:23.424Z,26.90
2023-02-07T18:08:50.853Z,19.07
2023-02-07T18:11:18.487Z,22.50
2023-02-07T18:13:47.437Z,24.00
2023-02-07T18:16:17.011Z,22.07
2023-02-07T18:18:44.438Z,21.07
2023-02-07T18:21:13.600Z,24.13
2023-02-07T18:23:43.007Z,22.77
2023-02-07T18:26:19.286Z,28.43
2023-02-07T18:28:46.887Z,23.70
2023-02-07T18:31:20.118Z,23.83
2023-02-07T18:33:48.559Z,23.80
2023-02-07T18:36:16.336Z,23.77
2023-02-07T18:38:43.724Z,26.63
2023-02-07T18:41:12.672Z,25.70
2023-02-07T18:43:43.740Z,21.53
2023-02-07T18:46:16.637Z,19.50
2023-02-07T18:48:45.091Z,19.90
2023-02-07T18:51:14.596Z,26.93
2023-02-07T18:53:43.172Z,27.17
2023-02-07T18:56:12.916Z,25.47
2023-02-07T18:58:40.192Z,28.13
2023-02-07T19:01:18.623Z,23.27
2023-02-07T19:03:54.494Z,23.13
2023-02-07T19:06:22.919Z,23.80
2023-02-07T19:08:50.415Z,25.43
2023-02-07T19:11:17.863Z,26.00
2023-02-07T19:13:45.394Z,23.40
2023-02-07T19:16:23.037Z,23.23
2023-02-07T19:18:50.546Z,23.27
2023-02-07T19:21:21.707Z,26.07
2023-02-07T19:23:49.329Z,24.23
2023-02-07T19:26:16.313Z,21.03
2023-02-07T19:28:43.539Z,24.07
2023-02-07T19:31:17.946Z,29.23
2023-02-07T19:33:48.003Z,23.40
2023-02-07T19:36:16.777Z,23.70
2023-02-07T19:38:44.085Z,19.97
2023-02-07T19:41:11.050Z,22.07
2023-02-07T19:43:38.341Z,21.40
2023-02-07T19:46:05.729Z,22.60
2023-02-07T19:48:33.153Z,25.20
2023-02-07T19:51:14.605Z,27.00
2023-02-07T19:53:44.057Z,21.87
2023-02-07T19:56:12.733Z,19.00
2023-02-07T19:58:45.399Z,23.40
2023-02-07T20:01:13.235Z,24.57
2023-02-07T20:03:41.290Z,24.10
2023-02-07T20:06:12.247Z,22.10
2023-02-07T20:08:40.955Z,26.30
2023-02-07T20:11:13.352Z,22.03
2023-02-07T20:13:44.060Z,20.67
2023-02-07T20:16:14.156Z,21.27
2023-02-07T20:18:42.082Z,26.87
2023-02-07T20:21:13.031Z,21.33
2023-02-07T20:23:42.110Z,24.53
2023-02-07T20:26:12.654Z,24.73
2023-02-07T20:28:39.931Z,22.90
2023-02-07T20:31:11.436Z,29.20
2023-02-07T20:33:42.399Z,22.87
2023-02-07T20:36:10.633Z,25.27
2023-02-07T20:38:38.003Z,20.63
2023-02-07T20:41:29.069Z,24.47
2023-02-07T20:44:05.228Z,22.77
2023-02-07T20:46:34.968Z,22.20
2023-02-07T20:49:05.299Z,21.67
2023-02-07T20:51:32.314Z,25.70
2023-02-07T20:54:01.652Z,23.60
2023-02-07T20:56:29.085Z,25.37
2023-02-07T20:58:58.115Z,23.10
2023-02-07T21:01:28.732Z,25.47
2023-02-07T21:03:58.333Z,27.93
2023-02-07T21:06:25.835Z,25.90
2023-02-07T21:09:00.297Z,26.10
2023-02-07T21:11:37.007Z,24.97
2023-02-07T21:14:06.834Z,23.77
2023-02-07T21:16:35.124Z,26.67
2023-02-07T21:19:02.587Z,32.83
2023-02-07T21:21:29.643Z,27.57
2023-02-07T21:23:58.153Z,34.10
2023-02-07T21:26:28.765Z,27.53
2023-02-07T21:29:00.860Z,30.23
2023-02-07T21:31:29.380Z,28.00
2023-02-07T21:33:56.999Z,26.57
2023-02-07T21:36:29.749Z,28.93
2023-02-07T21:38:59.413Z,30.13
2023-02-07T21:41:28.370Z,31.97
2023-02-07T21:43:56.510Z,27.80
2023-02-07T21:46:25.921Z,28.33
2023-02-07T21:48:57.865Z,28.47
2023-02-07T21:51:26.173Z,27.20
2023-02-07T21:53:55.003Z,26.30
2023-02-07T21:56:26.029Z,30.83
2023-02-07T21:59:00.946Z,33.83
2023-02-07T22:01:29.341Z,25.90
2023-02-07T22:03:59.268Z,24.17
2023-02-07T22:06:27.917Z,24.27
2023-02-07T22:08:57.762Z,25.57
2023-02-07T22:11:28.115Z,28.03
2023-02-07T22:13:56.672Z,23.57
2023-02-07T22:16:25.130Z,26.57
2023-02-07T22:18:53.723Z,25.57
2023-02-07T22:21:28.538Z,27.43
2023-02-07T22:23:56.740Z,22.73
2023-02-07T22:26:24.532Z,25.90
2023-02-07T22:28:52.494Z,28.77
2023-02-07T22:31:22.467Z,28.63
2023-02-07T22:33:52.768Z,26.87
2023-02-07T22:36:27.918Z,28.33
2023-02-07T22:38:55.829Z,28.63
2023-02-07T22:41:22.936Z,28.43
2023-02-07T22:43:50.760Z,29.80
2023-02-07T22:46:21.182Z,25.63
2023-02-07T22:48:48.812Z,25.23
2023-02-07T22:51:29.021Z,21.77
2023-02-07T22:54:06.327Z,27.23
2023-02-07T22:56:35.323Z,27.93
2023-02-07T22:59:02.705Z,30.17
2023-02-07T23:01:32.574Z,25.47
2023-02-07T23:04:02.359Z,30.07
2023-02-07T23:06:29.676Z,27.00
2023-02-07T23:08:56.972Z,35.37
2023-02-07T23:11:24.161Z,27.10
2023-02-07T23:13:52.411Z,26.53
2023-02-07T23:16:22.889Z,28.17
2023-02-07T23:18:52.109Z,25.97
2023-02-07T23:21:21.624Z,29.93
2023-02-07T23:23:49.312Z,29.23
2023-02-07T23:26:19.547Z,25.13
2023-02-07T23:28:47.343Z,24.87
2023-02-07T23:31:17.088Z,25.23
2023-02-07T23:33:44.618Z,25.93
2023-02-07T23:36:12.430Z,27.10
2023-02-07T23:38:40.345Z,29.53
2023-02-07T23:41:07.957Z,28.27
2023-02-07T23:43:36.731Z,23.33
2023-02-07T23:46:05.089Z,25.23
2023-02-07T23:48:34.165Z,22.37
2023-02-07T23:51:03.931Z,24.60
2023-02-07T23:53:31.452Z,21.03
2023-02-07T23:55:58.813Z,29.63
2023-02-07T23:58:27.048Z,23.80
